createdAt,value
2019-04-21T00:01:20.387Z,5.48
2019-04-21T00:06:45.291Z,5.60
2019-04-21T00:11:54.169Z,4.82
2019-04-21T00:16:34.770Z,4.86
2019-04-21T00:21:36.500Z,4.78
2019-04-21T00:26:45.814Z,4.97
2019-04-21T00:31:47.127Z,5.18
2019-04-21T00:36:48.839Z,5.19
2019-04-21T00:46:58.379Z,4.69
2019-04-21T00:52:15.899Z,4.70
2019-04-21T00:57:11.518Z,4.42
2019-04-21T01:02:06.254Z,4.37
2019-04-21T01:07:12.443Z,5.04
2019-04-21T01:12:15.554Z,4.97
2019-04-21T01:17:19.134Z,4.69
2019-04-21T01:21:56.041Z,5.02
2019-04-21T01:27:11.341Z,4.97
2019-04-21T01:32:23.985Z,5.08
2019-04-21T01:37:12.822Z,5.05
2019-04-21T01:47:20.650Z,5.08
2019-04-21T01:57:23.145Z,5.77
2019-04-21T02:02:40.369Z,5.32
2019-04-21T02:07:40.693Z,5.52
2019-04-21T02:12:31.635Z,5.52
2019-04-21T02:17:40.741Z,5.41
2019-04-21T02:22:57.416Z,5.21
2019-04-21T02:33:02.915Z,5.33
2019-04-21T02:38:01.221Z,6.00
2019-04-21T02:48:08.837Z,5.19
2019-04-21T02:53:00.959Z,4.86
2019-04-21T02:58:06.000Z,5.77
2019-04-21T03:08:03.767Z,5.53
2019-04-21T03:18:18.785Z,5.19
2019-04-21T03:23:19.154Z,5.06
2019-04-21T03:53:22.688Z,5.40
2019-04-21T03:58:37.455Z,5.14
2019-04-21T04:08:51.720Z,5.56
2019-04-21T04:13:37.582Z,5.47
2019-04-21T04:28:38.418Z,5.77
2019-04-21T04:44:03.258Z,5.19
2019-04-21T04:48:49.113Z,5.15
2019-04-21T04:53:44.039Z,5.38
2019-04-21T04:59:23.373Z,5.82
2019-04-21T05:03:48.938Z,5.34
2019-04-21T05:09:07.729Z,5.45
2019-04-21T05:14:02.994Z,5.64
2019-04-21T05:19:10.522Z,5.72
2019-04-21T05:23:55.893Z,5.88
2019-04-21T05:28:53.983Z,6.19
2019-04-21T05:34:04.934Z,6.00
2019-04-21T05:38:58.609Z,6.95
2019-04-21T05:44:06.871Z,6.10
2019-04-21T05:49:05.878Z,6.29
2019-04-21T05:54:23.627Z,6.18
2019-04-21T05:59:18.388Z,7.08
2019-04-21T06:04:25.577Z,6.66
2019-04-21T06:09:19.820Z,6.73
2019-04-21T06:14:25.338Z,6.49
2019-04-21T06:19:29.361Z,7.25
2019-04-21T06:24:20.408Z,7.10
2019-04-21T06:29:29.204Z,7.28
2019-04-21T06:34:41.084Z,7.17
2019-04-21T06:44:33.647Z,7.72
2019-04-21T06:49:31.383Z,10.11
2019-04-21T06:54:36.714Z,8.49
2019-04-21T06:59:37.205Z,8.33
2019-04-21T07:04:46.440Z,10.67
2019-04-21T07:09:45.409Z,9.98
2019-04-21T07:14:42.341Z,14.62
2019-04-21T07:19:40.942Z,9.88
2019-04-21T07:24:54.064Z,13.00
2019-04-21T07:29:55.618Z,13.04
2019-04-21T07:34:51.549Z,10.69
2019-04-21T07:39:57.395Z,9.61
2019-04-21T07:44:52.294Z,9.74
2019-04-21T07:55:12.614Z,8.87
2019-04-21T08:00:16.079Z,8.78
2019-04-21T08:05:07.430Z,8.62
2019-04-21T08:10:06.118Z,8.49
2019-04-21T08:15:15.694Z,9.07
2019-04-21T08:20:14.292Z,7.78
2019-04-21T08:25:16.600Z,9.46
2019-04-21T08:30:22.636Z,9.42
2019-04-21T08:35:49.514Z,9.14
2019-04-21T08:40:29.016Z,9.21
2019-04-21T08:45:29.497Z,8.58
2019-04-21T08:50:25.563Z,6.22
2019-04-21T08:55:32.181Z,5.77
2019-04-21T09:00:33.799Z,5.78
2019-04-21T09:05:34.240Z,5.36
2019-04-21T09:10:35.657Z,5.64
2019-04-21T09:15:36.902Z,4.60
2019-04-21T09:20:40.175Z,4.33
2019-04-21T09:30:24.253Z,3.28
2019-04-21T09:35:27.098Z,2.62
2019-04-21T09:40:34.438Z,2.40
2019-04-21T09:45:32.852Z,2.03
2019-04-21T09:50:34.959Z,1.98
2019-04-21T09:55:43.998Z,1.44
2019-04-21T10:00:46.141Z,1.52
2019-04-21T10:05:39.915Z,1.71
2019-04-21T10:10:42.503Z,1.53
2019-04-21T10:15:45.972Z,1.72
2019-04-21T10:20:47.065Z,1.70
2019-04-21T10:25:50.582Z,1.78
2019-04-21T10:30:52.901Z,2.25
2019-04-21T10:35:55.138Z,2.04
2019-04-21T10:40:57.144Z,2.12
2019-04-21T10:45:59.027Z,2.18
2019-04-21T10:51:01.483Z,2.35
2019-04-21T10:56:17.524Z,2.33
2019-04-21T11:01:06.359Z,2.67
2019-04-21T11:06:10.552Z,2.79
2019-04-21T11:11:12.094Z,3.04
2019-04-21T11:16:14.969Z,3.38
2019-04-21T11:21:16.671Z,3.45
2019-04-21T11:26:18.198Z,3.66
2019-04-21T11:31:21.012Z,3.62
2019-04-21T11:36:24.992Z,3.26
2019-04-21T11:41:27.554Z,2.76
2019-04-21T11:46:30.662Z,2.45
2019-04-21T11:51:33.163Z,2.73
2019-04-21T11:56:34.808Z,2.61
2019-04-21T12:01:37.242Z,2.55
2019-04-21T12:06:43.678Z,3.24
2019-04-21T12:11:43.399Z,4.11
2019-04-21T12:16:46.767Z,4.36
2019-04-21T12:21:57.919Z,4.39
2019-04-21T12:26:50.187Z,4.05
2019-04-21T12:31:53.805Z,3.38
2019-04-21T12:36:55.008Z,3.15
2019-04-21T12:41:56.761Z,3.51
2019-04-21T12:46:59.168Z,2.83
2019-04-21T12:52:01.898Z,2.75
2019-04-21T12:57:05.330Z,2.70
2019-04-21T13:02:07.407Z,2.48
2019-04-21T13:07:08.225Z,2.38
2019-04-21T13:12:11.113Z,2.63
2019-04-21T13:17:13.407Z,2.62
2019-04-21T13:22:16.130Z,2.41
2019-04-21T13:27:18.415Z,2.29
2019-04-21T13:32:21.068Z,2.18
2019-04-21T13:37:23.766Z,2.21
2019-04-21T13:42:35.773Z,2.17
2019-04-21T13:47:28.421Z,2.19
2019-04-21T13:52:31.068Z,2.20
2019-04-21T13:57:34.601Z,2.06
2019-04-21T14:02:36.555Z,2.10
2019-04-21T14:07:38.536Z,2.11
2019-04-21T14:12:42.454Z,2.38
2019-04-21T14:17:44.716Z,1.95
2019-04-21T14:22:47.125Z,2.01
2019-04-21T14:27:51.902Z,2.17
2019-04-21T14:32:51.985Z,2.38
2019-04-21T14:37:54.451Z,2.41
2019-04-21T14:42:58.341Z,2.23
2019-04-21T14:48:00.849Z,2.10
2019-04-21T14:53:03.287Z,2.28
2019-04-21T14:58:05.142Z,2.16
2019-04-21T15:03:07.540Z,2.11
2019-04-21T15:08:09.119Z,2.00
2019-04-21T15:13:10.347Z,2.25
2019-04-21T15:18:12.977Z,2.25
2019-04-21T15:23:15.759Z,2.42
2019-04-21T15:28:19.970Z,2.30
2019-04-21T15:33:22.298Z,2.34
2019-04-21T15:38:23.034Z,2.47
2019-04-21T15:43:26.571Z,3.06
2019-04-21T15:48:28.929Z,2.75
2019-04-21T15:53:31.871Z,2.92
2019-04-21T15:58:34.612Z,3.12
2019-04-21T16:03:36.413Z,2.95
2019-04-21T16:08:37.491Z,3.18
2019-04-21T16:13:41.561Z,2.91
2019-04-21T16:18:42.679Z,3.00
2019-04-21T16:23:46.318Z,3.31
2019-04-21T16:28:47.319Z,3.70
2019-04-21T16:33:51.243Z,5.13
2019-04-21T16:38:53.611Z,3.35
2019-04-21T16:43:55.456Z,3.45
2019-04-21T16:48:57.754Z,3.46
2019-04-21T16:53:59.896Z,3.63
2019-04-21T16:59:02.930Z,3.16
2019-04-21T17:04:04.606Z,3.01
2019-04-21T17:09:08.446Z,3.25
2019-04-21T17:16:32.985Z,3.61
2019-04-21T17:19:19.012Z,3.15
2019-04-21T17:24:14.625Z,3.45
2019-04-21T17:29:16.816Z,3.31
2019-04-21T17:34:21.593Z,3.36
2019-04-21T17:39:20.815Z,3.17
2019-04-21T17:44:23.502Z,3.56
2019-04-21T17:49:25.189Z,3.54
2019-04-21T17:54:35.707Z,3.75
2019-04-21T17:59:56.609Z,3.81
2019-04-21T18:04:51.028Z,4.18
2019-04-21T18:09:58.050Z,4.65
2019-04-21T18:14:34.583Z,4.47
2019-04-21T18:19:41.780Z,4.38
2019-04-21T18:24:48.019Z,4.24
2019-04-21T18:29:44.477Z,4.52
2019-04-21T18:34:54.512Z,4.94
2019-04-21T18:39:59.617Z,4.90
2019-04-21T18:45:28.420Z,4.76
2019-04-21T18:49:53.053Z,5.17
2019-04-21T18:55:09.558Z,4.95
2019-04-21T18:59:57.683Z,5.58
2019-04-21T19:05:07.442Z,5.47
2019-04-21T19:10:27.844Z,6.01
2019-04-21T19:15:20.373Z,5.71
2019-04-21T19:20:26.129Z,5.74
2019-04-21T19:35:15.053Z,5.94
2019-04-21T19:40:39.138Z,5.67
2019-04-21T19:45:33.841Z,6.25
2019-04-21T19:50:42.434Z,6.07
2019-04-21T19:55:25.375Z,6.10
2019-04-21T20:00:30.631Z,6.12
2019-04-21T20:05:36.131Z,5.80
2019-04-21T20:10:55.098Z,6.44
2019-04-21T20:15:56.925Z,6.16
2019-04-21T20:20:41.048Z,6.86
2019-04-21T20:25:47.377Z,6.82
2019-04-21T20:31:03.883Z,6.71
2019-04-21T20:36:01.885Z,6.51
2019-04-21T20:40:59.203Z,5.90
2019-04-21T20:46:08.062Z,6.51
2019-04-21T20:51:14.449Z,6.34
2019-04-21T20:56:09.076Z,6.94
2019-04-21T21:01:25.469Z,7.00
2019-04-21T21:06:18.755Z,6.96
2019-04-21T21:11:24.249Z,7.09
2019-04-21T21:16:33.678Z,7.25
2019-04-21T21:21:23.304Z,6.50
2019-04-21T21:31:31.285Z,6.59
2019-04-21T21:41:24.443Z,6.80
2019-04-21T21:46:35.106Z,6.41
2019-04-21T21:56:24.746Z,6.31
2019-04-21T22:01:29.510Z,6.47
2019-04-21T22:06:39.877Z,7.08
2019-04-21T22:11:31.842Z,6.91
2019-04-21T22:16:43.217Z,7.06
2019-04-21T22:21:55.071Z,7.41
2019-04-21T22:26:39.060Z,6.16
2019-04-21T22:31:41.573Z,6.12
2019-04-21T22:36:52.778Z,6.46
2019-04-21T22:41:48.466Z,7.19
2019-04-21T22:46:59.917Z,6.09
2019-04-21T22:51:51.860Z,6.28
2019-04-21T22:56:59.361Z,6.05
2019-04-21T23:01:55.713Z,6.28
2019-04-21T23:07:02.155Z,6.38
2019-04-21T23:12:00.028Z,5.84
2019-04-21T23:17:24.102Z,6.54
2019-04-21T23:22:18.829Z,6.58
2019-04-21T23:27:17.123Z,6.25
2019-04-21T23:32:22.421Z,6.45
2019-04-21T23:37:12.612Z,6.25
2019-04-21T23:42:11.250Z,6.33
2019-04-21T23:47:27.317Z,6.64
2019-04-21T23:52:16.009Z,6.40
2019-04-21T23:57:27.838Z,6.25
